createdAt,value
2023-04-23T00:01:58.242Z,10.07
2023-04-23T00:04:26.981Z,9.88
2023-04-23T00:06:55.118Z,10.02
2023-04-23T00:09:24.150Z,9.15
2023-04-23T00:11:51.655Z,9.05
2023-04-23T00:14:18.950Z,8.52
2023-04-23T00:16:46.372Z,8.48
2023-04-23T00:19:18.012Z,8.30
2023-04-23T00:21:45.730Z,8.73
2023-04-23T00:24:12.852Z,8.75
2023-04-23T00:26:40.030Z,7.95
2023-04-23T00:29:07.328Z,9.13
2023-04-23T00:31:34.622Z,8.80
2023-04-23T00:34:01.897Z,8.10
2023-04-23T00:36:29.109Z,8.50
2023-04-23T00:38:56.216Z,7.75
2023-04-23T00:41:24.054Z,8.50
2023-04-23T00:43:53.345Z,7.47
2023-04-23T00:46:21.142Z,8.15
2023-04-23T00:48:48.266Z,8.15
2023-04-23T00:51:17.453Z,7.78
2023-04-23T00:53:44.597Z,8.00
2023-04-23T00:56:12.427Z,7.88
2023-04-23T00:58:40.842Z,7.35
2023-04-23T01:01:08.162Z,8.10
2023-04-23T01:03:37.174Z,7.70
2023-04-23T01:06:05.253Z,8.77
2023-04-23T01:08:34.297Z,9.18
2023-04-23T01:11:03.870Z,7.90
2023-04-23T01:13:31.286Z,7.85
2023-04-23T01:15:59.679Z,8.20
2023-04-23T01:18:27.769Z,8.20
2023-04-23T01:20:54.910Z,8.18
2023-04-23T01:23:22.685Z,7.93
2023-04-23T01:25:50.203Z,8.73
2023-04-23T01:28:17.672Z,8.55
2023-04-23T01:30:46.846Z,9.18
2023-04-23T01:33:15.241Z,9.25
2023-04-23T01:35:43.806Z,8.05
2023-04-23T01:38:14.297Z,8.80
2023-04-23T01:40:41.493Z,8.23
2023-04-23T01:43:09.934Z,8.40
2023-04-23T01:45:37.441Z,7.93
2023-04-23T01:48:04.870Z,8.10
2023-04-23T01:50:32.083Z,7.45
2023-04-23T01:52:59.284Z,7.50
2023-04-23T01:55:26.562Z,7.93
2023-04-23T01:57:53.656Z,10.55
2023-04-23T02:00:20.913Z,10.27
2023-04-23T02:02:48.431Z,11.40
2023-04-23T02:05:18.860Z,13.93
2023-04-23T02:07:48.373Z,13.80
2023-04-23T02:10:16.170Z,10.70
2023-04-23T02:12:43.916Z,9.77
2023-04-23T02:15:12.130Z,9.85
2023-04-23T02:17:42.292Z,9.30
2023-04-23T02:20:10.743Z,9.23
2023-04-23T02:22:42.733Z,8.82
2023-04-23T02:25:11.212Z,8.65
2023-04-23T02:27:38.407Z,9.27
2023-04-23T02:30:08.609Z,7.65
2023-04-23T02:32:37.546Z,7.70
2023-04-23T02:35:06.794Z,7.47
2023-04-23T02:37:34.122Z,6.97
2023-04-23T02:40:01.728Z,7.53
2023-04-23T02:42:28.784Z,7.20
2023-04-23T02:44:55.937Z,7.40
2023-04-23T02:47:23.109Z,7.60
2023-04-23T02:49:50.444Z,6.93
2023-04-23T02:52:17.726Z,7.85
2023-04-23T02:54:44.846Z,7.82
2023-04-23T02:57:14.636Z,7.50
2023-04-23T02:59:41.718Z,7.65
2023-04-23T03:02:08.971Z,8.70
2023-04-23T03:04:36.158Z,9.55
2023-04-23T03:07:03.358Z,10.73
2023-04-23T03:09:30.469Z,9.82
2023-04-23T03:11:58.121Z,10.02
2023-04-23T03:14:25.547Z,10.27
2023-04-23T03:16:52.647Z,9.52
2023-04-23T03:19:19.789Z,8.95
2023-04-23T03:21:47.036Z,8.70
2023-04-23T03:24:15.268Z,8.52
2023-04-23T03:26:42.401Z,8.52
2023-04-23T03:29:10.734Z,8.32
2023-04-23T03:31:37.803Z,7.70
2023-04-23T03:34:04.895Z,7.25
2023-04-23T03:36:32.558Z,10.02
2023-04-23T03:38:59.737Z,10.95
2023-04-23T03:41:26.847Z,9.85
2023-04-23T03:43:54.011Z,10.07
2023-04-23T03:46:21.217Z,9.60
2023-04-23T03:48:48.420Z,10.70
2023-04-23T03:51:16.264Z,9.90
2023-04-23T03:53:43.382Z,11.10
2023-04-23T03:56:10.637Z,11.95
2023-04-23T03:58:38.291Z,14.65
2023-04-23T04:01:05.907Z,12.65
2023-04-23T04:03:33.173Z,12.40
2023-04-23T04:06:00.415Z,12.05
2023-04-23T04:08:27.529Z,11.35
2023-04-23T04:10:54.765Z,11.25
2023-04-23T04:13:22.117Z,12.57
2023-04-23T04:15:49.310Z,14.93
2023-04-23T04:18:16.516Z,11.50
2023-04-23T04:20:44.514Z,12.23
2023-04-23T04:23:11.609Z,12.57
2023-04-23T04:25:40.335Z,12.15
2023-04-23T04:28:09.643Z,10.90
2023-04-23T04:30:36.865Z,10.27
2023-04-23T04:33:04.074Z,11.70
2023-04-23T04:35:31.322Z,11.23
2023-04-23T04:37:59.018Z,11.18
2023-04-23T04:40:28.890Z,10.35
2023-04-23T04:42:56.037Z,8.77
2023-04-23T04:45:24.034Z,8.93
2023-04-23T04:47:51.686Z,9.02
2023-04-23T04:50:18.864Z,8.90
2023-04-23T04:52:46.221Z,7.45
2023-04-23T04:55:13.371Z,8.38
2023-04-23T04:57:40.472Z,8.27
2023-04-23T05:00:29.598Z,8.23
2023-04-23T05:02:58.806Z,8.02
2023-04-23T05:05:27.078Z,8.35
2023-04-23T05:07:54.605Z,9.90
2023-04-23T05:10:22.267Z,11.20
2023-04-23T05:12:49.494Z,11.73
2023-04-23T05:15:16.681Z,11.80
2023-04-23T05:17:44.235Z,9.60
2023-04-23T05:20:11.792Z,9.65
2023-04-23T05:22:39.556Z,8.25
2023-04-23T05:25:07.739Z,8.23
2023-04-23T05:27:35.507Z,9.02
2023-04-23T05:30:04.507Z,9.13
2023-04-23T05:32:31.762Z,8.73
2023-04-23T05:35:00.244Z,9.18
2023-04-23T05:37:27.330Z,9.40
2023-04-23T05:39:54.412Z,9.73
2023-04-23T05:42:21.871Z,9.25
2023-04-23T05:44:48.999Z,10.55
2023-04-23T05:47:16.174Z,9.98
2023-04-23T05:49:43.295Z,11.18
2023-04-23T05:52:10.560Z,14.65
2023-04-23T05:54:37.778Z,18.02
2023-04-23T05:57:05.301Z,19.23
2023-04-23T05:59:32.818Z,17.10
2023-04-23T06:02:00.488Z,19.65
2023-04-23T06:04:27.854Z,11.63
2023-04-23T06:06:55.302Z,11.20
2023-04-23T06:09:22.641Z,9.60
2023-04-23T06:11:50.877Z,9.90
2023-04-23T06:14:18.033Z,9.20
2023-04-23T06:16:45.343Z,14.90
2023-04-23T06:19:13.002Z,9.10
2023-04-23T06:21:40.405Z,13.32
2023-04-23T06:24:08.320Z,15.23
2023-04-23T06:26:35.585Z,14.68
2023-04-23T06:29:03.007Z,17.55
2023-04-23T06:31:30.646Z,11.90
2023-04-23T06:33:57.898Z,17.88
2023-04-23T06:36:25.243Z,9.88
2023-04-23T06:38:52.448Z,11.20
2023-04-23T06:41:19.776Z,14.32
2023-04-23T06:43:48.500Z,16.50
2023-04-23T06:46:15.819Z,12.30
2023-04-23T06:48:43.078Z,8.73
2023-04-23T06:51:10.192Z,6.93
2023-04-23T06:53:37.462Z,7.82
2023-04-23T06:56:04.762Z,7.00
2023-04-23T06:58:32.384Z,6.10
2023-04-23T07:01:00.565Z,6.57
2023-04-23T07:03:28.638Z,6.47
2023-04-23T07:05:55.973Z,6.50
2023-04-23T07:08:23.154Z,6.93
2023-04-23T07:10:50.596Z,6.30
2023-04-23T07:13:17.797Z,6.30
2023-04-23T07:15:45.188Z,5.63
2023-04-23T07:18:12.540Z,5.82
2023-04-23T07:20:40.104Z,7.50
2023-04-23T07:23:07.723Z,6.00
2023-04-23T07:25:34.911Z,6.45
2023-04-23T07:28:02.184Z,6.45
2023-04-23T07:30:29.575Z,6.22
2023-04-23T07:32:57.234Z,7.40
2023-04-23T07:35:24.483Z,9.07
2023-04-23T07:37:54.058Z,7.13
2023-04-23T07:40:22.702Z,6.60
2023-04-23T07:42:51.239Z,7.38
2023-04-23T07:45:19.421Z,8.38
2023-04-23T07:47:49.538Z,6.00
2023-04-23T07:50:16.803Z,7.63
2023-04-23T07:52:47.537Z,5.15
2023-04-23T07:55:15.548Z,5.35
2023-04-23T07:57:43.087Z,7.38
2023-04-23T08:00:11.503Z,7.43
2023-04-23T08:02:38.764Z,7.28
2023-04-23T08:05:07.105Z,21.88
2023-04-23T08:07:34.487Z,33.72
2023-04-23T08:10:05.445Z,29.33
2023-04-23T08:12:36.011Z,38.58
2023-04-23T08:15:03.941Z,45.22
2023-04-23T08:17:31.188Z,14.40
2023-04-23T08:19:58.295Z,17.02
2023-04-23T08:22:25.665Z,6.30
2023-04-23T08:24:53.260Z,8.80
2023-04-23T08:27:20.517Z,9.60
2023-04-23T08:29:47.764Z,9.00
2023-04-23T08:32:15.070Z,6.55
2023-04-23T08:34:42.306Z,6.70
2023-04-23T08:37:16.581Z,6.28
2023-04-23T08:39:53.574Z,12.93
2023-04-23T08:42:48.036Z,8.32
2023-04-23T08:45:15.388Z,5.22
2023-04-23T08:47:46.936Z,4.15
2023-04-23T08:50:18.989Z,4.00
2023-04-23T08:53:10.757Z,6.50
2023-04-23T08:55:44.222Z,5.50
2023-04-23T08:58:16.886Z,3.78
2023-04-23T09:03:12.529Z,3.50
2023-04-23T09:05:40.868Z,4.90
2023-04-23T09:08:08.822Z,4.25
2023-04-23T09:10:42.125Z,4.75
2023-04-23T09:13:09.970Z,3.92
2023-04-23T09:15:45.674Z,3.70
2023-04-23T09:18:14.075Z,4.10
2023-04-23T09:20:50.235Z,4.05
2023-04-23T09:23:26.754Z,2.35
2023-04-23T09:25:54.310Z,2.60
2023-04-23T09:28:21.423Z,2.97
2023-04-23T09:30:49.320Z,2.95
2023-04-23T09:33:22.659Z,2.17
2023-04-23T09:35:55.157Z,2.00
2023-04-23T09:38:22.783Z,1.60
2023-04-23T09:40:51.075Z,1.20
2023-04-23T09:43:31.254Z,1.83
2023-04-23T09:45:58.413Z,1.45
2023-04-23T09:48:40.668Z,1.35
2023-04-23T09:51:07.832Z,1.70
2023-04-23T09:53:46.415Z,1.35
2023-04-23T09:56:13.638Z,1.55
2023-04-23T09:58:40.746Z,1.52
2023-04-23T10:01:09.500Z,1.50
2023-04-23T10:03:37.860Z,1.08
2023-04-23T10:06:09.193Z,1.58
2023-04-23T10:08:44.708Z,1.25
2023-04-23T10:13:47.514Z,1.30
2023-04-23T10:16:23.141Z,1.05
2023-04-23T10:18:57.198Z,0.98
2023-04-23T10:21:39.464Z,1.00
2023-04-23T10:24:15.011Z,0.80
2023-04-23T10:26:43.900Z,1.40
2023-04-23T10:29:16.568Z,1.42
2023-04-23T10:31:46.911Z,0.90
2023-04-23T10:34:16.780Z,1.20
2023-04-23T10:36:44.129Z,0.77
2023-04-23T10:39:12.491Z,1.27
2023-04-23T10:41:41.706Z,1.00
2023-04-23T10:44:44.938Z,1.25
2023-04-23T10:47:14.337Z,1.25
2023-04-23T10:49:42.820Z,0.93
2023-04-23T10:52:20.626Z,1.20
2023-04-23T10:54:57.251Z,1.42
2023-04-23T10:57:24.428Z,3.65
2023-04-23T10:59:56.542Z,1.30
2023-04-23T11:02:25.051Z,0.90
2023-04-23T11:04:59.517Z,1.00
2023-04-23T11:07:31.792Z,1.35
2023-04-23T11:10:13.646Z,1.38
2023-04-23T11:12:41.576Z,1.42
2023-04-23T11:15:14.124Z,1.10
2023-04-23T11:17:44.508Z,0.80
2023-04-23T11:20:22.748Z,1.40
2023-04-23T11:22:53.618Z,1.00
2023-04-23T11:25:23.343Z,1.33
2023-04-23T11:27:52.323Z,1.70
2023-04-23T11:30:21.698Z,3.20
2023-04-23T11:32:51.595Z,1.52
2023-04-23T11:35:20.804Z,1.40
2023-04-23T11:37:48.765Z,1.48
2023-04-23T11:40:20.596Z,1.17
2023-04-23T11:42:50.043Z,0.90
2023-04-23T11:45:22.168Z,1.60
2023-04-23T11:47:51.411Z,1.58
2023-04-23T11:50:33.705Z,1.88
2023-04-23T11:53:09.063Z,1.33
2023-04-23T11:55:36.565Z,1.30
2023-04-23T11:58:04.329Z,1.00
2023-04-23T12:00:31.519Z,1.30
2023-04-23T12:03:02.547Z,1.20
2023-04-23T12:05:39.898Z,1.50
2023-04-23T12:08:18.490Z,1.20
2023-04-23T12:10:59.398Z,1.33
2023-04-23T12:13:31.652Z,1.20
2023-04-23T12:16:03.954Z,1.05
2023-04-23T12:18:32.862Z,1.20
2023-04-23T12:21:11.668Z,0.90
2023-04-23T12:23:41.795Z,1.13
2023-04-23T12:26:13.877Z,1.50
2023-04-23T12:28:58.383Z,1.27
2023-04-23T12:31:31.185Z,1.10
2023-04-23T12:34:09.735Z,1.02
2023-04-23T12:36:38.059Z,1.27
2023-04-23T12:39:22.037Z,1.10
2023-04-23T12:41:52.350Z,1.48
2023-04-23T12:44:19.569Z,1.10
2023-04-23T12:46:56.999Z,1.48
2023-04-23T12:49:25.125Z,1.38
2023-04-23T12:51:52.868Z,1.27
2023-04-23T12:54:20.078Z,1.05
2023-04-23T12:56:47.234Z,1.50
2023-04-23T12:59:14.395Z,1.20
2023-04-23T13:01:41.926Z,1.42
2023-04-23T13:04:09.342Z,1.33
2023-04-23T13:06:36.648Z,1.20
2023-04-23T13:09:05.587Z,1.58
2023-04-23T13:11:33.438Z,1.42
2023-04-23T13:14:00.621Z,1.83
2023-04-23T13:16:28.040Z,1.60
2023-04-23T13:18:55.611Z,1.30
2023-04-23T13:21:23.279Z,1.42
2023-04-23T13:23:51.523Z,1.40
2023-04-23T13:26:18.954Z,1.52
2023-04-23T13:28:46.269Z,1.30
2023-04-23T13:31:13.884Z,1.40
2023-04-23T13:33:42.197Z,1.20
2023-04-23T13:36:09.429Z,1.30
2023-04-23T13:38:36.692Z,2.28
2023-04-23T13:41:04.669Z,1.30
2023-04-23T13:43:31.883Z,1.90
2023-04-23T13:46:01.407Z,1.60
2023-04-23T13:48:31.291Z,1.70
2023-04-23T13:51:01.333Z,1.55
2023-04-23T13:53:28.844Z,1.50
2023-04-23T13:55:56.852Z,1.90
2023-04-23T13:58:24.349Z,1.50
2023-04-23T14:00:52.525Z,1.88
2023-04-23T14:03:20.660Z,1.63
2023-04-23T14:05:47.992Z,1.58
2023-04-23T14:08:15.134Z,2.20
2023-04-23T14:10:43.702Z,1.80
2023-04-23T14:13:11.154Z,1.88
2023-04-23T14:15:38.453Z,1.73
2023-04-23T14:18:05.934Z,2.00
2023-04-23T14:20:33.220Z,2.45
2023-04-23T14:23:22.266Z,1.80
2023-04-23T14:25:54.330Z,1.80
2023-04-23T14:28:39.348Z,1.40
2023-04-23T14:31:06.665Z,1.35
2023-04-23T14:33:33.868Z,1.60
2023-04-23T14:36:01.081Z,1.60
2023-04-23T14:38:28.315Z,1.60
2023-04-23T14:40:56.390Z,1.80
2023-04-23T14:43:23.658Z,1.95
2023-04-23T14:45:52.139Z,1.67
2023-04-23T14:48:19.321Z,1.67
2023-04-23T14:50:46.672Z,1.80
2023-04-23T14:53:13.812Z,2.00
2023-04-23T14:55:43.527Z,1.63
2023-04-23T14:58:10.772Z,1.65
2023-04-23T15:00:37.899Z,1.50
2023-04-23T15:03:11.179Z,1.40
2023-04-23T15:05:40.233Z,1.70
2023-04-23T15:08:08.047Z,1.60
2023-04-23T15:10:35.251Z,1.60
2023-04-23T15:13:29.704Z,1.70
2023-04-23T15:16:02.518Z,1.83
2023-04-23T15:18:29.961Z,2.35
2023-04-23T15:20:57.171Z,2.10
2023-04-23T15:23:24.762Z,1.77
2023-04-23T15:25:53.097Z,2.00
2023-04-23T15:28:20.253Z,2.05
2023-04-23T15:30:47.796Z,1.70
2023-04-23T15:33:14.875Z,2.83
2023-04-23T15:35:42.254Z,2.45
2023-04-23T15:38:09.569Z,1.40
2023-04-23T15:40:42.282Z,1.80
2023-04-23T15:43:16.276Z,1.52
2023-04-23T15:45:43.740Z,2.10
2023-04-23T15:48:10.983Z,1.63
2023-04-23T15:50:38.206Z,1.60
2023-04-23T15:53:05.384Z,3.33
2023-04-23T15:55:34.193Z,3.38
2023-04-23T15:58:04.280Z,2.95
2023-04-23T16:00:34.762Z,2.58
2023-04-23T16:03:05.715Z,2.42
2023-04-23T16:05:33.303Z,2.30
2023-04-23T16:08:00.707Z,1.80
2023-04-23T16:10:30.328Z,3.20
2023-04-23T16:12:58.819Z,3.63
2023-04-23T16:15:26.406Z,3.28
2023-04-23T16:17:53.658Z,2.90
2023-04-23T16:20:20.882Z,3.90
2023-04-23T16:22:48.207Z,2.95
2023-04-23T16:25:15.705Z,4.88
2023-04-23T16:27:43.163Z,3.90
2023-04-23T16:30:10.893Z,2.97
2023-04-23T16:32:39.043Z,3.42
2023-04-23T16:35:07.137Z,4.65
2023-04-23T16:37:34.746Z,4.93
2023-04-23T16:40:04.205Z,3.42
2023-04-23T16:42:31.902Z,3.92
2023-04-23T16:44:59.201Z,2.90
2023-04-23T16:47:27.185Z,5.82
2023-04-23T16:49:54.493Z,3.78
2023-04-23T16:52:23.686Z,3.65
2023-04-23T16:54:51.097Z,4.03
2023-04-23T16:57:18.764Z,8.32
2023-04-23T16:59:46.512Z,4.07
2023-04-23T17:02:13.928Z,4.28
2023-04-23T17:04:41.403Z,3.47
2023-04-23T17:07:09.303Z,3.35
2023-04-23T17:09:36.476Z,4.53
2023-04-23T17:12:03.954Z,3.67
2023-04-23T17:14:31.159Z,3.70
2023-04-23T17:16:58.409Z,3.53
2023-04-23T17:19:25.660Z,3.30
2023-04-23T17:21:53.229Z,2.80
2023-04-23T17:24:21.043Z,3.75
2023-04-23T17:26:49.563Z,3.63
2023-04-23T17:29:17.112Z,4.45
2023-04-23T17:31:44.329Z,3.63
2023-04-23T17:34:11.453Z,3.22
2023-04-23T17:36:38.874Z,4.93
2023-04-23T17:39:06.099Z,5.30
2023-04-23T17:41:33.640Z,3.78
2023-04-23T17:44:01.972Z,5.40
2023-04-23T17:46:29.385Z,7.90
2023-04-23T17:48:57.137Z,9.63
2023-04-23T17:51:24.447Z,7.25
2023-04-23T17:53:52.097Z,6.15
2023-04-23T17:56:19.419Z,5.93
2023-04-23T17:58:47.151Z,4.53
2023-04-23T18:01:15.579Z,4.38
2023-04-23T18:03:43.022Z,4.70
2023-04-23T18:06:10.290Z,6.20
2023-04-23T18:08:39.032Z,6.47
2023-04-23T18:11:08.096Z,6.88
2023-04-23T18:13:36.467Z,7.70
2023-04-23T18:16:03.640Z,8.20
2023-04-23T18:18:30.861Z,7.75
2023-04-23T18:20:58.194Z,6.50
2023-04-23T18:23:26.325Z,6.05
2023-04-23T18:25:53.651Z,5.22
2023-04-23T18:28:21.596Z,5.47
2023-04-23T18:30:48.851Z,5.78
2023-04-23T18:33:16.714Z,5.20
2023-04-23T18:35:47.229Z,5.82
2023-04-23T18:38:37.560Z,5.60
2023-04-23T18:41:05.012Z,5.78
2023-04-23T18:43:32.805Z,5.75
2023-04-23T18:46:00.899Z,7.35
2023-04-23T18:48:33.895Z,7.07
2023-04-23T18:51:17.640Z,7.13
2023-04-23T18:53:44.979Z,6.63
2023-04-23T18:56:12.270Z,8.80
2023-04-23T18:58:39.842Z,11.63
2023-04-23T19:01:07.328Z,12.65
2023-04-23T19:03:34.701Z,11.40
2023-04-23T19:06:07.861Z,17.15
2023-04-23T19:08:36.023Z,9.35
2023-04-23T19:11:03.827Z,8.40
2023-04-23T19:13:31.894Z,9.48
2023-04-23T19:16:00.468Z,9.13
2023-04-23T19:18:29.726Z,9.85
2023-04-23T19:20:58.386Z,9.43
2023-04-23T19:23:25.625Z,11.45
2023-04-23T19:25:52.869Z,11.52
2023-04-23T19:28:20.134Z,11.18
2023-04-23T19:30:47.368Z,12.38
2023-04-23T19:33:14.479Z,10.68
2023-04-23T19:35:41.836Z,9.45
2023-04-23T19:38:09.585Z,11.23
2023-04-23T19:40:36.715Z,11.77
2023-04-23T19:43:04.396Z,12.65
2023-04-23T19:45:32.518Z,12.98
2023-04-23T19:48:00.133Z,12.57
2023-04-23T19:50:27.692Z,11.98
2023-04-23T19:52:54.863Z,12.52
2023-04-23T19:55:27.184Z,12.90
2023-04-23T19:57:56.571Z,13.25
2023-04-23T20:00:24.851Z,10.32
2023-04-23T20:02:52.909Z,8.63
2023-04-23T20:05:20.312Z,8.02
2023-04-23T20:07:47.462Z,11.23
2023-04-23T20:10:17.314Z,8.65
2023-04-23T20:12:44.807Z,8.65
2023-04-23T20:15:12.848Z,9.95
2023-04-23T20:17:40.536Z,9.20
2023-04-23T20:20:10.348Z,8.52
2023-04-23T20:22:38.658Z,8.10
2023-04-23T20:25:06.420Z,8.05
2023-04-23T20:27:33.718Z,8.50
2023-04-23T20:30:01.612Z,23.40
2023-04-23T20:32:29.618Z,7.93
2023-04-23T20:34:58.337Z,11.85
2023-04-23T20:37:27.161Z,9.23
2023-04-23T20:39:56.076Z,7.50
2023-04-23T20:42:26.053Z,9.50
2023-04-23T20:44:53.320Z,9.05
2023-04-23T20:47:20.720Z,8.80
2023-04-23T20:49:47.941Z,8.30
2023-04-23T20:52:16.779Z,8.10
2023-04-23T20:54:46.670Z,8.90
2023-04-23T20:57:15.366Z,9.52
2023-04-23T20:59:43.235Z,8.80
2023-04-23T21:02:13.607Z,9.13
2023-04-23T21:04:41.392Z,9.38
2023-04-23T21:07:16.509Z,9.43
2023-04-23T21:09:44.110Z,9.82
2023-04-23T21:12:11.857Z,9.20
2023-04-23T21:14:39.028Z,8.55
2023-04-23T21:17:10.697Z,9.98
2023-04-23T21:19:40.716Z,10.00
2023-04-23T21:22:08.155Z,8.98
2023-04-23T21:24:35.317Z,9.00
2023-04-23T21:27:03.858Z,9.48
2023-04-23T21:29:31.806Z,10.93
2023-04-23T21:31:59.090Z,10.95
2023-04-23T21:34:32.658Z,15.98
2023-04-23T21:36:59.781Z,16.23
2023-04-23T21:39:28.565Z,12.82
2023-04-23T21:41:57.245Z,10.90
2023-04-23T21:44:25.494Z,11.63
2023-04-23T21:46:53.564Z,12.38
2023-04-23T21:49:21.132Z,12.88
2023-04-23T21:51:50.349Z,11.43
2023-04-23T21:54:18.205Z,14.80
2023-04-23T21:56:45.629Z,13.85
2023-04-23T21:59:13.999Z,18.90
2023-04-23T22:01:42.080Z,17.08
2023-04-23T22:04:10.370Z,18.50
2023-04-23T22:06:38.135Z,19.48
2023-04-23T22:09:09.897Z,18.50
2023-04-23T22:11:37.009Z,16.10
2023-04-23T22:14:05.697Z,14.20
2023-04-23T22:16:34.458Z,12.50
2023-04-23T22:19:04.782Z,12.05
2023-04-23T22:21:33.130Z,11.23
2023-04-23T22:24:00.520Z,12.38
2023-04-23T22:26:29.357Z,13.30
2023-04-23T22:28:56.800Z,11.68
2023-04-23T22:31:24.726Z,13.63
2023-04-23T22:33:53.255Z,13.15
2023-04-23T22:36:22.252Z,13.38
2023-04-23T22:38:49.369Z,12.57
2023-04-23T22:41:16.704Z,11.63
2023-04-23T22:43:44.293Z,11.43
2023-04-23T22:46:11.528Z,12.50
2023-04-23T22:48:44.175Z,13.13
2023-04-23T22:51:12.059Z,12.27
2023-04-23T22:53:39.176Z,11.52
2023-04-23T22:56:07.682Z,11.10
2023-04-23T22:58:34.903Z,11.80
2023-04-23T23:01:02.119Z,11.95
2023-04-23T23:03:29.468Z,11.65
2023-04-23T23:05:56.738Z,10.77
2023-04-23T23:08:23.901Z,12.30
2023-04-23T23:10:51.042Z,10.68
2023-04-23T23:13:18.229Z,11.80
2023-04-23T23:15:45.362Z,11.30
2023-04-23T23:18:12.668Z,10.95
2023-04-23T23:20:41.197Z,10.40
2023-04-23T23:23:08.362Z,10.52
2023-04-23T23:25:38.571Z,10.85
2023-04-23T23:28:06.065Z,10.20
2023-04-23T23:30:33.280Z,10.73
2023-04-23T23:33:01.290Z,10.15
2023-04-23T23:35:28.445Z,9.57
2023-04-23T23:37:55.958Z,9.52
2023-04-23T23:40:22.984Z,9.73
2023-04-23T23:42:50.294Z,9.25
2023-04-23T23:45:17.467Z,10.00
2023-04-23T23:47:44.696Z,9.23
2023-04-23T23:50:11.959Z,9.20
2023-04-23T23:52:39.126Z,9.05
2023-04-23T23:55:07.354Z,8.10
2023-04-23T23:57:34.455Z,8.10
